ADDS METAR Data INFO
IDs: Format: Raw Decoded Include TAF

Data at: 2307 UTC 21 Feb 2018

KUVA 212255Z AUTO 36009KT 10SM OVC016 09/06 A3014 RMK AO2 T00890056
KUVA 212235Z AUTO 36011KT 10SM OVC018 09/06 A3014 RMK AO2 T00870055
KUVA 212215Z AUTO 36013G17KT 10SM OVC016 09/06 A3013 RMK AO2 T00900059
KUVA 212155Z AUTO 36009KT 10SM OVC016 09/06 A3014 RMK AO2 LTG DSNT NE T00850057
KUVA 212135Z AUTO 35010G15KT 10SM OVC016 09/06 A3014 RMK AO2 LTG DSNT NE T00850058
KUVA 212115Z AUTO 35013KT 10SM OVC018 08/06 A3013 RMK AO2 LTG DSNT NE T00810056
KUVA 212055Z AUTO 34013KT 10SM OVC018 08/06 A3014 RMK AO2 LTG DSNT NE T00800056
KUVA 212035Z AUTO 35012G16KT 10SM BKN009 OVC018 08/06 A3013 RMK AO2 LTG DSNT NE AND E T00800058
KUVA 212015Z AUTO 36009KT 10SM OVC009 08/07 A3015 RMK AO2 T00810067
KUVA 211955Z AUTO 35010KT 10SM OVC009 08/06 A3014 RMK AO2 LTG DSNT NE AND E T00780064
KUVA 211935Z AUTO 35011KT 10SM BKN009 OVC016 08/07 A3013 RMK AO2 LTG DSNT N T00800068
KUVA 211915Z AUTO 34012KT 7SM OVC007 08/07 A3013 RMK AO2 LTG DSNT NE AND E T00750066
KUVA 211835Z AUTO 35012KT 2 1/2SM VCTSDZ BKN007 OVC018 08/07 A3014 RMK AO2 LTG DSNT NE THRU SE T00790070
KUVA 211815Z AUTO 36008KT 5SM -DZ OVC020 08/07 A3014 RMK AO2 LTG DSNT NE THRU SE T00830071
KUVA 211755Z AUTO 01012KT 10SM VCTS OVC020 09/07 A3013 RMK AO2 LTG DSNT ALQS P0001 60051 T00850071 10202 20085
KUVA 211735Z AUTO 36012G17KT 10SM OVC020 09/08 A3011 RMK AO2 LTG DSNT N THRU E P0001 T00880075
KUVA 211715Z AUTO 01012KT 10SM -VCTSRA SCT015 BKN020 09/09 A3010 RMK AO2 LTG DSNT N THRU SE T00930085
KUVA 211655Z AUTO 36012G16KT 10SM -VCTSRA SCT005 SCT012 SCT022 10/10 A3010 RMK AO2 LTG DSNT ALQS P0040 T01000095
KUVA 211635Z AUTO 03011G17KT 3/4SM +TSRA OVC003 12/11 A3009 RMK AO2 LTG DSNT N THRU E P0034 T01200112
KUVA 211615Z AUTO 08011G17KT 1 3/4SM -RA OVC003 16/15 A3004 RMK AO2 LTG DSNT N AND NW T01620149
KUVA 211555Z AUTO 15009G15KT 1 1/4SM VCTSRA SCT003 OVC008 20/20 A3003 RMK AO2 LTG DSNT W THRU N P0001 T02000195
KUVA 211535Z AUTO 13009G15KT 1 3/4SM -RA SCT006 BKN010 OVC016 20/19 A3003 RMK AO2 LTG DSNT N AND NW T02000194
KUVA 211515Z AUTO 12013G18KT 2SM DZ SCT004 OVC010 20/19 A3002 RMK AO2 LTG DSNT N AND NW T02000193
KUVA 211455Z AUTO 12010KT 2 1/2SM -VCTSDZ OVC012 20/19 A3000 RMK AO2 LTG DSNT N AND NW P0006 60009 T02000193
KUVA 211435Z AUTO 11011KT 3SM -DZ OVC012 20/19 A3000 RMK AO2 LTG DSNT W THRU N P0006 T01980192
KUVA 211415Z AUTO 12008KT 3SM TS BR SCT007 BKN013 BKN020 20/19 A3000 RMK AO2 LTG DSNT ALQS P0006 T01970191
KUVA 211355Z AUTO 12006KT 4SM VCTS BR SCT010 BKN016 OVC023 20/19 A3001 RMK AO2 LTG DSNT ALQS P0003 T01970190
KUVA 211335Z AUTO 12006KT 3SM -VCTSRA SCT008 SCT017 OVC023 20/19 A2999 RMK AO2 LTG DSNT ALQS P0002 T01970187
KUVA 211315Z AUTO 11008KT 7SM SCT016 OVC023 20/19 A2999 RMK AO2 LTG DSNT N T02010185
KUVA 211255Z AUTO 12007KT 10SM SCT014 OVC022 20/19 A2999 RMK AO2 LTG DSNT W T02020185
KUVA 210755Z AUTO 13006KT 10SM SCT014 BKN020 OVC027 21/19 A2995 RMK AO2 T02120193
KUVA 210735Z AUTO 12010KT 10SM SCT015 BKN022 21/19 A2995 RMK AO2 LTG DSNT N T02120193
KUVA 210715Z AUTO 10006KT 10SM SCT015 BKN022 BKN027 21/20 A2993 RMK AO2 T02130195
KUVA 210655Z AUTO 10009G14KT 10SM BKN016 OVC025 22/20 A2994 RMK AO2 LTG DSNT NW T02150196
KUVA 210635Z AUTO 10004KT 10SM SCT011 BKN018 OVC026 21/20 A2996 RMK AO2 T02130198
KUVA 210615Z AUTO 09011KT 7SM BKN019 BKN024 21/20 A2995 RMK AO2 T02110199
KUVA 210555Z AUTO 09008KT 7SM CLR 21/20 A2995 RMK AO2 LTG DSNT NE T02070197 10253 20207 402700195
KUVA 201515Z AUTO 14007KT 5SM BR BKN019 BKN024 20/19 A2989 RMK AO2 LTG DSNT NE T01990190
KUVA 201455Z AUTO 12007KT 4SM BR SCT016 BKN022 BKN028 20/19 A2989 RMK AO2 LTG DSNT N AND NE P0001 60004 T01960190
KUVA 201440Z AUTO 12006KT 4SM BR SCT016 BKN020 BKN026 20/19 A2989 RMK AO2 LTG DSNT N AND NE P0001 T01950187
KUVA 201415Z AUTO 11011KT 5SM -RA SCT016 OVC023 20/19 A2988 RMK AO2 P0001 T01950185
KUVA 201355Z AUTO 11007KT 4SM -RA OVC014 20/19 A2989 RMK AO2 P0002 T01970185
KUVA 201335Z AUTO 13004KT 10SM OVC016 20/18 A2989 RMK AO2 T02020182
KUVA 201315Z AUTO 12006KT 10SM -DZ OVC018 20/18 A2987 RMK AO2 T02030181
KUVA 201255Z AUTO 12007KT 10SM OVC018 21/18 A2986 RMK AO2 T02050180
KUVA 201235Z AUTO 12010KT 10SM OVC018 21/18 A2985 RMK AO2 T02050180
KUVA 201215Z AUTO 13009KT 10SM OVC020 21/18 A2985 RMK AO2 T02070180
KUVA 201200Z AUTO 12012G18KT 10SM OVC020 21/18 A2984 RMK AO2 T02080180
KUVA 201135Z AUTO 12010KT 10SM OVC020 21/18 A2984 RMK AO2 T02080178
KUVA 201115Z AUTO 12011G16KT 10SM OVC020 21/18 A2984 RMK AO2 T02080178